aviador You're here:

MMHO Decoded Metar

HERMOSILLO in MEXICO
Report Time2017-08-19 10:40:00
UTC Time2017-08-19 11:12:16
Flight Rules vfr VFR
Wind090° at 05 kt
W.Decomp.*RWY 11: 4.3 kt HW 2.5 kt LCW
RWY 05: 4.3 kt HW 2.5 kt RCW
W.Rank090° ranks 16
Current wind is below 090° avg. (5.5)
Visibility9999 m
Phenomena:Light Rain
Clouds:Scattered 040 Hf
Overcast 070 Hf
Expected CloudBase > 1,600 ft AGL from Temp-Dew spread
Ceiling7,000 ft
Temp28°C (ISA +14)
Dew Point24°C (79% RH)
Heat Index31.9°C
QNH1013 hPa
Density Alt2,631 ft
Elevation604 ft
Report Wrong Elevation
Raw Report
METAR MMHO 191040Z 09005KT 10SM -RA SCT040 OVC070 28/24 A2992 RMK 60015
8/46/=

Extra information for MMHO:More info

Metar Taf Metar & Taf Last 4 Metars F.Rules Stats Wind Profile Meteogram Temp Stats Airport Information Weather charts Add Link Nearby VenuesMetar ALERT Operation Metar Decoded Social comments